Meteorología y climatología de Navarra
Datos de la estación - Meteo Navarra

Estación de Bardenas (El Yugo) GN

Altitud 486 m.


Datos desde el 30/06/2020 hasta el 01/07/2020 en horario solar
Los datos son PROVISIONALES

Anterior Página 1 de 1 Siguiente Descargar: Formato para Excel 2000 o superior   Formato csv   Formato para OpenOffice Calc
Fecha Temperatura Humedad relativa Radiación global Insolación Precipitación Vel. viento 10 m Vel. viento 10 m Dir. viento 10 m
ºC % W/m² s l/m² m/s km/h º
30/06/2020 0:00 15.5 82 0.0 0 0.0 3.5 12.6 324
30/06/2020 0:10 15.4 82 0.0 0 0.0 3.5 12.4 319
30/06/2020 0:20 15.3 82 0.0 0 0.0 4.0 14.2 321
30/06/2020 0:30 15.3 82 0.0 0 0.0 4.2 15.1 322
30/06/2020 0:40 15.3 82 0.0 0 0.0 4.4 15.7 319
30/06/2020 0:50 15.2 83 0.0 0 0.0 4.3 15.4 316
30/06/2020 1:00 15.0 84 0.0 0 0.0 4.3 15.5 315
30/06/2020 1:10 15.0 84 0.0 0 0.0 4.7 16.8 315
30/06/2020 1:20 14.9 84 0.0 0 0.0 5.4 19.4 314
30/06/2020 1:30 14.9 83 0.0 0 0.0 4.9 17.7 315
30/06/2020 1:40 14.9 83 0.0 0 0.0 4.5 16.3 315
30/06/2020 1:50 14.9 83 0.0 0 0.0 4.5 16.1 312
30/06/2020 2:00 14.9 83 0.0 0 0.0 4.7 17.0 315
30/06/2020 2:10 14.8 83 0.0 0 0.0 4.5 16.2 317
30/06/2020 2:20 14.8 82 0.0 0 0.0 4.5 16.2 311
30/06/2020 2:30 14.8 82 0.0 0 0.0 4.2 15.3 307
30/06/2020 2:40 14.8 82 0.0 0 0.0 4.3 15.5 309
30/06/2020 2:50 14.7 81 0.0 0 0.0 3.8 13.8 310
30/06/2020 3:00 14.6 82 0.0 0 0.0 4.1 14.7 310
30/06/2020 3:10 14.6 82 0.0 0 0.0 4.5 16.2 310
30/06/2020 3:20 14.8 81 0.0 0 0.0 4.8 17.3 316
30/06/2020 3:30 14.8 81 0.0 0 0.0 4.7 16.9 322
30/06/2020 3:40 14.7 81 0.0 0 0.0 5.1 18.3 316
30/06/2020 3:50 14.8 80 0.0 0 0.0 5.0 17.9 304
30/06/2020 4:00 14.7 81 0.0 0 0.0 5.1 18.3 300
30/06/2020 4:10 14.8 80 0.0 0 0.0 4.7 17.1 305
30/06/2020 4:20 14.8 80 0.0 0 0.0 3.7 13.3 328
30/06/2020 4:30 14.5 81 0.0 0 0.0 3.7 13.3 334
30/06/2020 4:40 14.4 82 0.0 0 0.0 3.9 14.1 323
30/06/2020 4:50 14.4 82 0.0 0 0.0 4.2 15.0 324
30/06/2020 5:00 14.5 82 21.9 0 0.0 4.0 14.4 327
30/06/2020 5:10 14.6 81 37.3 202 0.0 4.5 16.2 314
30/06/2020 5:20 15.0 80 65.9 600 0.0 4.1 14.9 311
30/06/2020 5:30 15.2 79 87.8 600 0.0 3.8 13.8 315
30/06/2020 5:40 15.5 78 110.2 600 0.0 3.4 12.1 316
30/06/2020 5:50 15.7 76 130.3 600 0.0 3.3 12.0 316
30/06/2020 6:00 16.0 75 146.2 600 0.0 3.3 12.0 302
30/06/2020 6:10 16.0 75 161.0 600 0.0 3.5 12.6 296
30/06/2020 6:20 16.0 76 178.8 600 0.0 3.0 10.8 302
30/06/2020 6:30 16.4 75 200.9 600 0.0 3.0 10.8 296
30/06/2020 6:40 16.7 74 232.1 600 0.0 2.4 8.5 298
30/06/2020 6:50 17.0 73 266.4 600 0.0 2.3 8.2 301
30/06/2020 7:00 17.5 71 301.0 600 0.0 1.9 6.9 305
30/06/2020 7:10 18.2 68 334.6 600 0.0 2.3 8.3 311
30/06/2020 7:20 18.5 65 367.4 600 0.0 2.5 9.1 330
30/06/2020 7:30 19.0 63 403.5 600 0.0 2.5 9.1 318
30/06/2020 7:40 19.1 63 441.6 600 0.0 2.7 9.7 324
30/06/2020 7:50 19.7 60 479.5 600 0.0 2.8 9.9 339
30/06/2020 8:00 20.1 58 517.3 600 0.0 2.7 9.7 349
30/06/2020 8:10 20.4 56 552.9 600 0.0 2.3 8.4 330
30/06/2020 8:20 20.7 56 586.1 600 0.0 2.9 10.4 350
30/06/2020 8:30 21.2 55 618.0 600 0.0 2.2 7.9 17
30/06/2020 8:40 21.3 55 649.1 600 0.0 2.0 7.3 347
30/06/2020 8:50 21.9 54 676.5 600 0.0 1.4 5.1 344
30/06/2020 9:00 22.3 53 702.7 600 0.0 1.5 5.4 4
30/06/2020 9:10 22.5 54 725.8 600 0.0 1.3 4.8 21
30/06/2020 9:20 23.4 56 752.0 600 0.0 2.0 7.2 32
30/06/2020 9:30 24.5 52 775.8 600 0.0 2.3 8.1 81
30/06/2020 9:40 24.6 51 797.0 600 0.0 2.3 8.4 71
30/06/2020 9:50 24.9 49 817.0 600 0.0 2.2 7.8 84
30/06/2020 10:00 25.4 49 835.0 600 0.0 2.0 7.1 88
30/06/2020 10:10 25.3 49 851.0 600 0.0 2.3 8.2 82
30/06/2020 10:20 25.8 46 870.0 600 0.0 2.1 7.7 77
30/06/2020 10:30 26.3 44 886.0 600 0.0 2.0 7.1 95
30/06/2020 10:40 26.4 42 899.0 600 0.0 2.2 8.0 85
30/06/2020 10:50 26.7 41 916.0 600 0.0 2.5 9.0 81
30/06/2020 11:00 27.3 36 930.0 600 0.0 2.6 9.4 118
30/06/2020 11:10 27.6 32 945.0 600 0.0 2.0 7.0 110
30/06/2020 11:20 28.3 31 952.0 600 0.0 1.9 6.8 112
30/06/2020 11:30 28.4 33 959.0 600 0.0 2.4 8.8 92
30/06/2020 11:40 28.9 33 964.0 600 0.0 2.2 7.9 90
30/06/2020 11:50 29.2 34 969.0 600 0.0 1.5 5.4 63
30/06/2020 12:00 29.4 34 970.0 600 0.0 2.5 8.9 115
30/06/2020 12:10 29.9 34 972.0 600 0.0 2.4 8.5 85
30/06/2020 12:20 29.5 35 970.0 600 0.0 2.2 7.8 147
30/06/2020 12:30 29.3 35 968.0 600 0.0 2.1 7.7 188
30/06/2020 12:40 29.9 34 964.0 600 0.0 3.0 10.8 179
30/06/2020 12:50 31.2 33 960.0 600 0.0 3.4 12.3 172
30/06/2020 13:00 30.7 32 953.0 600 0.0 4.2 15.2 176
30/06/2020 13:10 30.4 32 946.0 600 0.0 2.7 9.6 198
30/06/2020 13:20 31.0 31 939.0 600 0.0 3.3 11.8 198
30/06/2020 13:30 31.6 30 944.0 600 0.0 2.0 7.2 169
30/06/2020 13:40 31.6 30 786.7 600 0.0 2.1 7.7 171
30/06/2020 13:50 31.5 30 851.0 600 0.0 3.1 11.1 192
30/06/2020 14:00 31.7 31 795.1 600 0.0 2.3 8.2 174
30/06/2020 14:10 30.8 33 376.8 220 0.0 2.7 9.7 173
30/06/2020 14:20 30.0 35 293.9 0 0.0 3.7 13.4 207
30/06/2020 14:30 29.4 37 243.0 0 0.0 3.6 12.9 221
30/06/2020 14:40 29.3 37 291.9 0 0.0 3.4 12.3 208
30/06/2020 14:50 29.2 37 244.5 0 0.0 3.5 12.5 210
30/06/2020 15:00 29.0 37 216.3 0 0.0 3.6 12.9 213
30/06/2020 15:10 28.6 37 182.5 0 0.0 3.8 13.6 214
30/06/2020 15:20 28.3 38 119.2 0 0.0 4.4 15.8 221
30/06/2020 15:30 27.9 39 81.9 0 0.0 3.7 13.3 216
30/06/2020 15:40 27.8 39 73.0 0 0.0 2.8 9.9 216
30/06/2020 15:50 27.9 39 164.3 0 0.0 3.4 12.4 217
30/06/2020 16:00 28.5 38 299.0 76 0.0 2.7 9.6 217
30/06/2020 16:10 29.2 36 304.9 170 0.0 3.5 12.7 219
30/06/2020 16:20 29.0 37 171.0 0 0.0 2.5 8.9 224
30/06/2020 16:30 28.5 38 145.9 0 0.0 2.3 8.2 201
30/06/2020 16:40 28.4 39 130.3 0 0.0 2.9 10.4 214
30/06/2020 16:50 28.3 39 102.8 0 0.0 2.7 9.7 228
30/06/2020 17:00 28.1 39 81.8 0 0.0 3.3 11.9 239
30/06/2020 17:10 27.9 39 81.4 0 0.0 3.6 12.8 262
30/06/2020 17:20 27.8 39 80.7 0 0.0 2.1 7.7 261
30/06/2020 17:30 27.8 39 80.9 0 0.0 2.6 9.4 267
30/06/2020 17:40 27.5 39 80.1 0 0.0 3.2 11.7 286
30/06/2020 17:50 27.3 39 57.4 0 0.0 2.4 8.6 304
30/06/2020 18:00 27.1 40 35.2 0 0.0 3.0 10.6 286
30/06/2020 18:10 26.8 43 32.5 0 0.0 3.5 12.6 269
30/06/2020 18:20 26.7 43 27.6 0 0.0 3.4 12.3 271
30/06/2020 18:30 26.8 41 22.2 0 0.0 2.1 7.4 255
30/06/2020 18:40 26.9 41 9.7 0 0.0 2.1 7.5 238
30/06/2020 18:50 26.9 40 0.0 0 0.0 2.1 7.5 261
30/06/2020 19:00 27.0 40 0.0 0 0.0 2.0 7.3 310
30/06/2020 19:10 26.6 43 0.0 0 0.0 2.2 8.0 10
30/06/2020 19:20 25.9 48 0.0 0 0.0 3.7 13.4 345
30/06/2020 19:30 25.3 51 0.0 0 0.0 3.6 13.1 347
30/06/2020 19:40 25.3 51 0.0 0 0.0 3.7 13.4 4
30/06/2020 19:50 25.0 53 0.0 0 0.0 3.2 11.7 19
30/06/2020 20:00 24.8 54 0.0 0 0.0 3.6 12.8 12
30/06/2020 20:10 24.9 54 0.0 0 0.0 3.1 11.1 6
30/06/2020 20:20 24.8 55 0.0 0 0.0 2.4 8.7 45
30/06/2020 20:30 25.0 54 0.0 0 0.0 2.3 8.1 76
30/06/2020 20:40 25.1 53 0.0 0 0.0 2.8 10.2 97
30/06/2020 20:50 25.1 53 0.0 0 0.0 2.5 9.0 95
30/06/2020 21:00 25.0 53 0.0 0 0.0 2.4 8.7 124
30/06/2020 21:10 24.9 54 0.0 0 0.0 2.2 8.0 224
30/06/2020 21:20 24.3 57 0.0 0 0.0 5.5 19.9 273
30/06/2020 21:30 24.0 60 0.0 0 0.0 5.4 19.3 318
30/06/2020 21:40 24.5 57 0.0 0 0.0 3.7 13.5 335
30/06/2020 21:50 24.8 54 0.0 0 0.0 3.8 13.8 321
30/06/2020 22:00 25.3 51 0.0 0 0.0 3.3 11.9 337
30/06/2020 22:10 25.3 50 0.0 0 0.0 3.0 10.9 318
30/06/2020 22:20 26.0 47 0.0 0 0.0 4.0 14.4 32
30/06/2020 22:30 25.2 52 0.0 0 0.0 3.8 13.7 105
30/06/2020 22:40 24.4 57 0.0 0 0.0 3.7 13.1 106
30/06/2020 22:50 24.4 57 0.0 0 0.0 2.7 9.7 141
30/06/2020 23:00 24.5 57 0.0 0 0.0 3.7 13.1 354
30/06/2020 23:10 23.5 62 0.0 0 0.0 3.5 12.6 56
30/06/2020 23:20 23.7 60 0.0 0 0.0 4.2 15.0 92
30/06/2020 23:30 23.8 59 0.0 0 0.0 5.3 19.1 103
30/06/2020 23:40 23.6 60 0.0 0 0.0 5.1 18.5 103
30/06/2020 23:50 23.7 61 0.0 0 0.0 5.7 20.6 102
Anterior Página 1 de 1 Siguiente

NOTA: Tipo de datos según el color:
   - Valores diarios o 10 minutos correctos
   - Valores diarios calculados a partir de un número de datos 10 minutos menor que 144 y mayor que 120, o de un número de datos semihorarios menor que 48 y mayor que 40 (caso de las estaciones de INTIA y del Ministerio)
   - Valores diez minutos estimados


Contacto        Enlaces        Aviso legal